Time;durP1;ratioP1;P1;durP2;ratioP2;P2;SDS_P1;SDS_P2;PMS_P1;PMS_P2;Temp;Humidity;BMP_temperature;BMP_pressure;BME280_temperature;BME280_humidity;BME280_pressure;Samples;Min_cycle;Max_cycle;Signal;HPM_P1;HPM_P2
2024/01/25 00:01:08;;;;;;;39.42;5.45;;;;;;;16.49;46.48;102604.03;4996184;28;20034;-62
2024/01/25 00:03:33;;;;;;;18.15;3.83;;;;;;;16.48;47.19;102596.88;4987073;28;20046;-64
2024/01/25 00:06:00;;;;;;;23.70;4.97;;;;;;;16.52;47.00;102594.78;4975152;28;20509;-64
2024/01/25 00:08:25;;;;;;;23.13;5.63;;;;;;;16.52;46.51;102592.09;4976563;28;20035;-64
2024/01/25 00:10:50;;;;;;;24.90;4.88;;;;;;;16.47;46.54;102595.16;4976277;28;20439;-63
2024/01/25 00:13:16;;;;;;;23.00;4.40;;;;;;;16.46;46.93;102606.97;4958992;28;20550;-64
2024/01/25 00:15:41;;;;;;;39.40;6.35;;;;;;;16.48;46.48;102596.88;4975372;28;20030;-65
2024/01/25 00:18:07;;;;;;;24.50;4.25;;;;;;;16.48;46.45;102596.88;4975110;28;20039;-64
2024/01/25 00:20:32;;;;;;;31.92;5.38;;;;;;;16.50;47.20;102596.78;4975121;28;20031;-64
2024/01/25 00:22:57;;;;;;;27.27;5.20;;;;;;;16.48;47.40;102607.69;4975080;28;20046;-64
2024/01/25 00:25:25;;;;;;;32.25;4.68;;;;;;;16.50;47.03;102613.84;4958898;28;20047;-64
2024/01/25 00:27:50;;;;;;;31.00;5.53;;;;;;;16.49;47.07;102609.44;4976193;28;20042;-64
2024/01/25 00:30:15;;;;;;;23.88;4.45;;;;;;;16.52;46.89;102598.38;4974734;28;20038;-64
2024/01/25 00:32:41;;;;;;;29.83;5.13;;;;;;;16.53;47.26;102597.38;4976376;28;20035;-66
2024/01/25 00:35:09;;;;;;;22.45;4.93;;;;;;;16.52;46.76;102601.06;4974828;28;20030;-64
2024/01/25 00:37:35;;;;;;;25.65;4.80;;;;;;;16.52;47.03;102609.19;4974800;28;20031;-64
2024/01/25 00:40:00;;;;;;;27.30;4.10;;;;;;;16.49;46.79;102620.25;4975081;28;20038;-64
2024/01/25 00:42:26;;;;;;;37.92;5.47;;;;;;;16.53;46.95;102610.03;4988740;28;20030;-64
2024/01/25 00:44:52;;;;;;;23.73;4.57;;;;;;;16.51;46.51;102602.03;4976917;28;20038;-64
2024/01/25 00:47:18;;;;;;;19.63;4.55;;;;;;;16.48;47.25;102602.28;5001622;28;20027;-65
2024/01/25 00:49:43;;;;;;;35.80;6.43;;;;;;;16.51;47.53;102607.44;4994613;28;20026;-65
2024/01/25 00:52:10;;;;;;;27.60;5.75;;;;;;;16.48;47.50;102604.13;4992720;28;20054;-65
2024/01/25 00:54:35;;;;;;;29.52;5.40;;;;;;;16.51;47.35;102612.00;5001521;28;20212;-64
2024/01/25 00:57:02;;;;;;;26.73;4.55;;;;;;;16.51;46.87;102612.00;4994692;28;20096;-64
2024/01/25 00:59:27;;;;;;;29.58;5.13;;;;;;;16.50;47.04;102600.31;4993218;28;20019;-65
2024/01/25 01:01:55;;;;;;;34.15;4.90;;;;;;;16.51;47.25;102609.28;4993362;28;20401;-64
2024/01/25 01:04:20;;;;;;;23.85;6.20;;;;;;;16.47;47.54;102615.94;4992094;28;20037;-65
2024/01/25 01:06:47;;;;;;;21.40;6.75;;;;;;;16.47;47.48;102615.94;4991743;28;20026;-64
2024/01/25 01:09:13;;;;;;;30.45;4.60;;;;;;;16.45;46.75;102605.25;4992901;28;20038;-65
2024/01/25 01:11:38;;;;;;;21.92;3.55;;;;;;;16.45;47.28;102607.94;4992843;28;20117;-64
2024/01/25 01:14:04;;;;;;;36.67;5.70;;;;;;;16.44;46.99;102616.19;4994449;28;20026;-64
2024/01/25 01:16:32;;;;;;;24.48;4.38;;;;;;;16.43;46.96;102615.31;4976612;28;20030;-64
2024/01/25 01:19:05;;;;;;;21.75;4.50;;;;;;;16.41;47.35;102614.59;4984952;28;20058;-64
2024/01/25 01:21:30;;;;;;;20.10;4.95;;;;;;;16.36;47.51;102611.38;4990900;28;20030;-64
2024/01/25 01:23:55;;;;;;;37.78;5.47;;;;;;;16.35;47.02;102616.94;4976362;28;20117;-65
2024/01/25 01:26:21;;;;;;;23.48;5.43;;;;;;;16.33;47.56;102614.34;5000892;28;20054;-63
2024/01/25 01:28:46;;;;;;;20.65;4.82;;;;;;;16.32;47.08;102612.63;4993892;28;20085;-64
2024/01/25 01:31:11;;;;;;;23.77;4.65;;;;;;;16.27;47.39;102612.97;4976782;28;20034;-64
2024/01/25 01:33:37;;;;;;;26.95;5.95;;;;;;;16.25;47.65;102619.50;4992838;28;20054;-65
2024/01/25 01:36:02;;;;;;;22.00;4.50;;;;;;;16.27;48.00;102620.25;4993800;28;20034;-65
2024/01/25 01:38:28;;;;;;;34.00;4.45;;;;;;;16.23;47.61;102608.81;4994681;28;20030;-64
2024/01/25 01:40:53;;;;;;;28.30;4.95;;;;;;;16.20;47.64;102614.47;4977216;28;20026;-64
2024/01/25 01:43:19;;;;;;;29.55;5.13;;;;;;;16.18;47.44;102616.44;4994276;28;20494;-64
2024/01/25 01:45:45;;;;;;;31.10;5.22;;;;;;;16.13;46.92;102612.38;4976944;28;20039;-64
2024/01/25 01:48:10;;;;;;;31.15;4.60;;;;;;;16.12;46.70;102626.84;4992847;28;20081;-64
2024/01/25 01:50:35;;;;;;;44.60;5.55;;;;;;;16.08;48.09;102625.41;4976671;28;20077;-65
2024/01/25 01:53:01;;;;;;;32.50;4.70;;;;;;;16.04;47.09;102626.59;4992964;28;20053;-64
2024/01/25 01:55:27;;;;;;;38.05;5.05;;;;;;;16.00;46.89;102608.88;4994008;28;20041;-65
2024/01/25 01:57:52;;;;;;;34.78;5.85;;;;;;;15.99;46.87;102626.13;4976367;28;20046;-64
2024/01/25 02:00:18;;;;;;;32.20;6.38;;;;;;;15.95;47.18;102630.03;4992807;28;20093;-64
2024/01/25 02:02:44;;;;;;;33.40;5.45;;;;;;;15.90;46.48;102624.97;4992774;28;20057;-65
2024/01/25 02:05:10;;;;;;;15.52;3.38;;;;;;;15.89;47.41;102625.09;4992186;28;20038;-64
2024/01/25 02:07:37;;;;;;;25.80;4.72;;;;;;;15.85;47.21;102629.03;4992639;28;20456;-64
2024/01/25 02:10:03;;;;;;;29.27;5.03;;;;;;;15.85;46.84;102639.84;4976256;28;20418;-64
2024/01/25 02:12:29;;;;;;;25.33;5.28;;;;;;;15.81;47.92;102639.19;4993980;28;20036;-65
2024/01/25 02:14:55;;;;;;;24.55;4.93;;;;;;;15.79;47.26;102645.72;4992842;28;20034;-64
2024/01/25 02:17:20;;;;;;;21.73;4.95;;;;;;;15.73;47.84;102637.09;4992169;28;20030;-64
2024/01/25 02:19:45;;;;;;;31.88;5.03;;;;;;;15.72;47.05;102640.78;4992651;28;20030;-65
2024/01/25 02:22:11;;;;;;;33.85;4.95;;;;;;;15.69;47.77;102635.59;4992929;28;20045;-65
2024/01/25 02:24:36;;;;;;;27.58;7.05;;;;;;;15.66;47.57;102638.53;5009477;28;20030;-64
2024/01/25 02:27:03;;;;;;;32.45;6.32;;;;;;;15.65;47.07;102649.47;5009297;28;20498;-64
2024/01/25 02:29:29;;;;;;;26.48;6.10;;;;;;;15.61;46.82;102656.06;4993696;28;20406;-64
2024/01/25 02:31:54;;;;;;;34.70;4.97;;;;;;;15.57;48.24;102658.19;5008917;28;20041;-64
2024/01/25 02:34:19;;;;;;;22.45;4.45;;;;;;;15.54;47.23;102661.09;4991588;28;20409;-65
2024/01/25 02:36:45;;;;;;;28.27;4.97;;;;;;;15.49;47.88;102663.31;5008785;28;20076;-65
2024/01/25 02:39:10;;;;;;;31.73;5.93;;;;;;;15.46;46.71;102671.63;4991399;28;20074;-64
2024/01/25 02:41:35;;;;;;;22.65;4.72;;;;;;;15.42;47.35;102667.38;4993953;28;20034;-65
2024/01/25 02:44:01;;;;;;;26.33;4.95;;;;;;;15.38;47.05;102665.06;5009031;28;20070;-64
2024/01/25 02:46:26;;;;;;;33.15;5.38;;;;;;;15.34;47.67;102661.72;5008610;28;20117;-64
2024/01/25 02:48:51;;;;;;;22.40;5.03;;;;;;;15.30;47.62;102662.91;4992202;28;20035;-65
2024/01/25 02:51:18;;;;;;;28.80;5.32;;;;;;;15.26;47.68;102664.13;4992308;28;20440;-65
2024/01/25 02:53:43;;;;;;;28.60;5.45;;;;;;;15.22;47.29;102662.63;5009215;28;20042;-67
2024/01/25 02:56:09;;;;;;;30.05;4.70;;;;;;;15.19;47.06;102672.81;4994073;28;20158;-67
2024/01/25 02:58:34;;;;;;;22.30;4.20;;;;;;;15.16;47.85;102684.66;4993103;28;20042;-67
2024/01/25 03:00:59;;;;;;;23.20;4.30;;;;;;;15.14;47.94;102686.63;5009634;28;20038;-66
2024/01/25 03:03:25;;;;;;;41.88;4.93;;;;;;;15.13;47.81;102690.31;4994806;28;20046;-67
2024/01/25 03:05:51;;;;;;;23.42;5.65;;;;;;;15.10;47.86;102674.34;4993732;28;20045;-67
2024/01/25 03:08:17;;;;;;;21.25;5.18;;;;;;;15.07;48.37;102685.38;4976801;28;20045;-67
2024/01/25 03:10:42;;;;;;;24.20;6.38;;;;;;;15.05;47.80;102687.28;4992621;28;20056;-67
2024/01/25 03:13:07;;;;;;;29.30;4.90;;;;;;;15.02;48.12;102682.09;4993913;28;20138;-67
2024/01/25 03:15:33;;;;;;;36.50;4.78;;;;;;;14.98;47.76;102686.03;4995398;28;20034;-67
2024/01/25 03:17:58;;;;;;;26.95;5.07;;;;;;;14.97;48.21;102700.47;4997769;28;20030;-67
2024/01/25 03:20:24;;;;;;;27.70;5.63;;;;;;;14.93;47.13;102693.59;4997818;28;20031;-67
2024/01/25 03:22:49;;;;;;;20.00;3.97;;;;;;;14.88;47.81;102693.09;5012658;28;20085;-67
2024/01/25 03:25:15;;;;;;;30.25;4.80;;;;;;;14.87;47.70;102704.84;5012658;28;20476;-65
2024/01/25 03:27:40;;;;;;;22.13;4.82;;;;;;;14.83;46.71;102703.31;4980058;28;20030;-66
2024/01/25 03:30:06;;;;;;;25.10;4.28;;;;;;;14.78;47.04;102700.09;4997585;28;20080;-66
2024/01/25 03:32:33;;;;;;;28.95;5.22;;;;;;;14.73;46.52;102697.75;4996475;28;20044;-66
2024/01/25 03:34:59;;;;;;;17.38;4.85;;;;;;;14.69;48.09;102693.53;4990405;28;20117;-66
2024/01/25 03:37:24;;;;;;;18.58;4.90;;;;;;;14.64;47.52;102682.22;4998025;28;20057;-66
2024/01/25 03:39:49;;;;;;;26.08;5.60;;;;;;;14.64;47.60;102681.34;4996027;28;20026;-67
2024/01/25 03:42:15;;;;;;;24.02;4.82;;;;;;;14.64;48.49;102681.34;4995788;28;20035;-66
2024/01/25 03:44:42;;;;;;;20.55;3.83;;;;;;;14.61;47.07;102684.25;4997088;28;20038;-66
2024/01/25 03:47:07;;;;;;;30.52;5.28;;;;;;;14.60;48.08;102685.25;5012072;28;20042;-67
2024/01/25 03:49:34;;;;;;;13.60;3.58;;;;;;;14.56;47.56;102690.84;4995654;28;20040;-66
2024/01/25 03:51:59;;;;;;;15.75;4.10;;;;;;;14.54;47.62;102692.78;4995677;28;20041;-67
2024/01/25 03:54:25;;;;;;;18.23;4.50;;;;;;;14.54;46.69;102703.56;4995699;28;20034;-67
2024/01/25 03:56:50;;;;;;;34.28;4.93;;;;;;;14.50;47.43;102707.47;4995539;28;20039;-67
2024/01/25 03:59:16;;;;;;;21.23;4.22;;;;;;;14.50;48.06;102693.13;4995383;28;20027;-67
2024/01/25 04:01:46;;;;;;;27.77;5.07;;;;;;;14.45;47.71;102693.44;4995344;28;20041;-65
2024/01/25 04:04:13;;;;;;;27.42;4.25;;;;;;;14.46;48.31;102697.84;4994916;28;20045;-65
2024/01/25 04:06:45;;;;;;;23.95;4.88;;;;;;;14.42;48.00;102700.88;4978722;28;20045;-65
2024/01/25 04:09:11;;;;;;;16.52;3.85;;;;;;;14.42;47.63;102704.44;4994850;28;20439;-65
2024/01/25 04:11:37;;;;;;;28.02;4.70;;;;;;;14.39;48.10;102693.88;4995956;28;20089;-65
2024/01/25 04:14:02;;;;;;;31.42;4.18;;;;;;;14.38;46.91;102700.22;4978635;28;20410;-65
2024/01/25 04:16:28;;;;;;;34.30;5.40;;;;;;;14.37;47.85;102701.22;4978694;28;20030;-66
2024/01/25 04:18:53;;;;;;;34.13;5.43;;;;;;;14.35;47.13;102708.53;4995834;28;20414;-65
2024/01/25 04:21:18;;;;;;;25.98;4.78;;;;;;;14.33;47.95;102698.81;4978475;28;20041;-65
2024/01/25 04:23:44;;;;;;;21.35;4.50;;;;;;;14.33;47.16;102710.47;4994665;28;20034;-65
2024/01/25 04:26:09;;;;;;;34.42;4.05;;;;;;;14.30;46.80;102707.97;4978222;28;20031;-65
2024/01/25 04:28:34;;;;;;;18.10;4.28;;;;;;;14.26;47.07;102703.78;4995818;28;20030;-64
2024/01/25 04:31:00;;;;;;;28.23;6.63;;;;;;;14.24;47.51;102697.59;4978095;28;20054;-65
2024/01/25 04:33:25;;;;;;;30.48;5.55;;;;;;;14.23;47.43;102682.41;4978189;28;20078;-66
2024/01/25 04:35:50;;;;;;;25.45;4.05;;;;;;;14.23;47.25;102686.94;4994772;28;20053;-66
2024/01/25 04:38:16;;;;;;;27.83;4.78;;;;;;;14.21;47.39;102684.34;4977888;28;20030;-65
2024/01/25 04:40:41;;;;;;;27.85;3.70;;;;;;;14.15;47.13;102674.00;4977710;28;20026;-65
2024/01/25 04:43:06;;;;;;;19.95;5.47;;;;;;;14.17;47.55;102688.22;4978384;28;20117;-66
2024/01/25 04:45:32;;;;;;;21.95;4.47;;;;;;;14.14;47.87;102674.97;4976953;28;20078;-64
2024/01/25 04:47:57;;;;;;;22.98;4.25;;;;;;;14.17;48.68;102687.38;4994108;28;20081;-65
2024/01/25 04:50:22;;;;;;;21.58;4.70;;;;;;;14.15;48.05;102690.19;4995584;28;20023;-66
2024/01/25 04:52:48;;;;;;;31.40;5.15;;;;;;;14.12;47.13;102681.44;4977659;28;20030;-66
2024/01/25 04:55:13;;;;;;;30.38;4.38;;;;;;;14.11;47.88;102677.00;4994027;28;20014;-65
2024/01/25 04:57:38;;;;;;;24.08;4.30;;;;;;;14.11;47.76;102672.50;4994042;28;20113;-65
2024/01/25 05:00:04;;;;;;;30.08;5.55;;;;;;;14.13;47.47;102675.94;4995161;28;20057;-65
2024/01/25 05:02:30;;;;;;;22.67;4.78;;;;;;;14.12;47.50;102681.44;4993756;28;20045;-66
2024/01/25 05:04:55;;;;;;;34.67;6.20;;;;;;;14.09;49.21;102674.44;4995011;28;20482;-65
2024/01/25 05:07:20;;;;;;;16.27;5.15;;;;;;;14.12;47.41;102679.63;4994925;28;20386;-65
2024/01/25 05:09:46;;;;;;;30.83;4.43;;;;;;;14.11;47.49;102669.78;4994668;28;20450;-65
2024/01/25 05:12:11;;;;;;;29.45;3.95;;;;;;;14.07;48.15;102673.66;4978199;28;20101;-65
2024/01/25 05:14:36;;;;;;;27.30;4.00;;;;;;;14.07;47.64;102678.22;4995139;28;20529;-65
2024/01/25 05:17:01;;;;;;;40.58;4.78;;;;;;;14.03;47.94;102674.84;4993301;28;20022;-65
2024/01/25 05:19:27;;;;;;;34.10;5.28;;;;;;;14.03;48.79;102669.47;4993368;28;20394;-65
2024/01/25 05:21:53;;;;;;;27.05;5.20;;;;;;;13.99;48.06;102676.88;4977306;28;20398;-65
2024/01/25 05:24:18;;;;;;;23.25;5.00;;;;;;;13.97;47.98;102677.97;4994854;28;20026;-64
2024/01/25 05:26:43;;;;;;;25.10;7.05;;;;;;;13.95;48.80;102682.59;4993783;28;20117;-65
2024/01/25 05:29:09;;;;;;;31.40;5.60;;;;;;;13.90;48.50;102673.97;4994695;28;20023;-65
2024/01/25 05:31:35;;;;;;;36.05;4.95;;;;;;;13.86;48.71;102683.22;4993380;28;20064;-65
2024/01/25 05:34:00;;;;;;;27.88;4.03;;;;;;;13.79;48.07;102676.56;4992901;28;20034;-65
2024/01/25 05:36:25;;;;;;;26.25;5.40;;;;;;;13.78;47.53;102686.47;4977398;28;20023;-65
2024/01/25 05:38:51;;;;;;;21.98;3.97;;;;;;;13.77;47.53;102675.78;4992646;28;20022;-66
2024/01/25 05:41:16;;;;;;;28.42;4.10;;;;;;;13.71;47.78;102687.81;4992956;28;20108;-66
2024/01/25 05:43:41;;;;;;;26.45;6.13;;;;;;;13.69;47.70;102703.22;4992933;28;20062;-65
2024/01/25 05:46:09;;;;;;;31.67;5.50;;;;;;;13.65;48.75;102709.78;4994433;28;20088;-65
2024/01/25 05:48:34;;;;;;;22.50;4.88;;;;;;;13.62;48.55;102712.69;4994599;28;20040;-65
2024/01/25 05:50:59;;;;;;;22.05;4.70;;;;;;;13.58;47.36;102707.59;4976716;28;20113;-65
2024/01/25 05:53:25;;;;;;;35.90;6.55;;;;;;;13.54;49.00;102706.09;4994394;28;20126;-65
2024/01/25 05:55:50;;;;;;;28.08;5.25;;;;;;;13.52;47.60;102711.56;4993113;28;20054;-65
2024/01/25 05:58:16;;;;;;;32.00;5.53;;;;;;;13.50;48.83;102709.94;4994482;28;20508;-65
2024/01/25 06:00:42;;;;;;;24.83;5.20;;;;;;;13.49;48.28;102710.91;4993118;28;20466;-65
2024/01/25 06:03:07;;;;;;;25.08;5.32;;;;;;;13.49;48.17;102706.38;4994302;28;20441;-65
2024/01/25 06:05:35;;;;;;;29.02;4.78;;;;;;;13.50;48.29;102718.91;4992923;28;20026;-65
2024/01/25 06:08:00;;;;;;;22.33;4.15;;;;;;;13.51;47.87;102719.75;4993141;28;20478;-66
2024/01/25 06:10:26;;;;;;;23.88;5.03;;;;;;;13.49;47.74;102721.66;4976277;28;20096;-65
2024/01/25 06:12:51;;;;;;;29.15;5.30;;;;;;;13.51;48.15;102719.75;4992925;28;20038;-65
2024/01/25 06:15:18;;;;;;;23.98;4.97;;;;;;;13.49;48.88;102705.50;4992583;28;20104;-66
2024/01/25 06:17:43;;;;;;;23.73;4.55;;;;;;;13.49;48.80;102701.00;4992643;28;20038;-65
2024/01/25 06:20:10;;;;;;;19.10;4.28;;;;;;;13.53;48.08;102707.06;4992429;28;20038;-66
2024/01/25 06:22:35;;;;;;;39.13;6.30;;;;;;;13.52;48.32;102713.38;4993570;28;20064;-65
2024/01/25 06:25:01;;;;;;;40.90;5.70;;;;;;;13.52;49.34;102718.78;4992684;28;20042;-65
2024/01/25 06:27:26;;;;;;;21.88;4.60;;;;;;;13.50;47.92;102712.63;4992636;28;20049;-65
2024/01/25 06:29:51;;;;;;;23.98;4.50;;;;;;;13.47;47.68;102712.84;4992265;28;20054;-65
2024/01/25 06:32:17;;;;;;;26.02;4.03;;;;;;;13.43;49.02;102713.03;4992703;28;20038;-65
2024/01/25 06:34:42;;;;;;;22.75;4.80;;;;;;;13.45;48.86;102720.16;4975780;28;20506;-65
2024/01/25 06:37:08;;;;;;;17.25;4.22;;;;;;;13.43;48.72;102722.09;4992463;28;20030;-66
2024/01/25 06:39:34;;;;;;;22.52;4.95;;;;;;;13.41;48.70;102731.13;4976487;28;20034;-65
2024/01/25 06:41:59;;;;;;;17.77;3.88;;;;;;;13.38;47.88;102730.47;4992535;28;20038;-66
2024/01/25 06:44:25;;;;;;;27.05;4.72;;;;;;;13.34;48.22;102728.94;4976234;28;20031;-66
2024/01/25 06:46:50;;;;;;;18.88;3.53;;;;;;;13.36;48.92;102735.09;4992280;28;20036;-65
2024/01/25 06:49:15;;;;;;;26.33;8.20;;;;;;;13.32;48.87;102729.03;4976193;28;20409;-65
2024/01/25 06:51:40;;;;;;;30.77;5.78;;;;;;;13.34;48.92;102729.78;4979620;28;20372;-65
2024/01/25 06:54:06;;;;;;;35.63;4.95;;;;;;;13.35;48.46;102725.28;4996180;28;20490;-65
2024/01/25 06:56:31;;;;;;;15.32;4.93;;;;;;;13.36;48.11;102718.94;4997567;28;20026;-66
2024/01/25 06:58:57;;;;;;;30.60;5.10;;;;;;;13.36;48.86;102727.00;4997527;28;20089;-65
2024/01/25 07:01:23;;;;;;;18.08;3.97;;;;;;;13.36;49.64;102727.88;4979959;28;20042;-65
2024/01/25 07:03:51;;;;;;;25.17;7.15;;;;;;;13.39;48.22;102733.06;4979369;28;20518;-63
2024/01/25 07:06:18;;;;;;;19.65;3.80;;;;;;;13.38;48.65;102731.31;4995827;28;20117;-70
2024/01/25 07:08:43;;;;;;;26.65;3.90;;;;;;;13.39;48.58;102737.56;4996165;28;20045;-65
2024/01/25 07:11:09;;;;;;;27.02;4.55;;;;;;;13.36;49.53;102735.97;4979510;28;20046;-67
2024/01/25 07:13:34;;;;;;;28.15;5.07;;;;;;;13.39;49.21;102741.16;4995819;28;20038;-67
2024/01/25 07:16:00;;;;;;;20.90;4.13;;;;;;;13.39;48.32;102749.22;4997661;28;20556;-66
2024/01/25 07:18:25;;;;;;;31.08;5.78;;;;;;;13.39;48.41;102753.72;4997773;28;20044;-67
2024/01/25 07:20:51;;;;;;;29.48;4.25;;;;;;;13.40;48.30;102755.44;4996214;28;20033;-67
2024/01/25 07:23:17;;;;;;;26.30;4.45;;;;;;;13.40;48.62;102755.44;4994864;28;20038;-67
2024/01/25 07:25:43;;;;;;;20.40;3.88;;;;;;;13.39;48.12;102754.59;4990701;28;20042;-67
2024/01/25 07:28:08;;;;;;;31.63;5.10;;;;;;;13.39;49.21;102757.28;5008044;28;20030;-67
2024/01/25 07:30:33;;;;;;;42.08;5.22;;;;;;;13.39;48.07;102757.28;4997704;28;20409;-67
2024/01/25 07:32:59;;;;;;;21.10;4.63;;;;;;;13.43;48.60;102759.78;4996271;28;20046;-67
2024/01/25 07:35:24;;;;;;;21.10;5.15;;;;;;;13.43;48.76;102763.31;4980035;28;20034;-67
2024/01/25 07:37:50;;;;;;;21.65;5.20;;;;;;;13.45;48.59;102763.22;4996650;28;20037;-67
2024/01/25 07:40:15;;;;;;;13.85;3.67;;;;;;;13.46;49.24;102748.78;4995343;28;20046;-67
2024/01/25 07:42:40;;;;;;;15.57;3.53;;;;;;;13.51;49.19;102747.56;4996532;28;20030;-67
2024/01/25 07:45:07;;;;;;;18.17;3.63;;;;;;;13.56;49.87;102766.09;4994859;28;20038;-67
2024/01/25 07:47:32;;;;;;;23.65;3.55;;;;;;;13.60;49.33;102755.00;4995257;28;20455;-67
2024/01/25 07:49:57;;;;;;;15.00;4.45;;;;;;;13.65;49.44;102760.94;4996308;28;20058;-67
2024/01/25 07:52:23;;;;;;;33.53;4.28;;;;;;;13.70;48.71;102752.56;4995028;28;20034;-67
2024/01/25 07:54:48;;;;;;;22.67;4.40;;;;;;;13.76;48.69;102757.56;4995535;28;20516;-67
2024/01/25 07:57:13;;;;;;;23.92;4.95;;;;;;;13.80;49.73;102756.38;4996789;28;20030;-67
2024/01/25 07:59:39;;;;;;;29.40;4.57;;;;;;;13.85;48.66;102757.78;4979518;28;20022;-67
2024/01/25 08:02:04;;;;;;;26.58;4.63;;;;;;;13.91;48.74;102761.91;4972648;28;20403;-67
2024/01/25 08:04:30;;;;;;;28.13;5.07;;;;;;;13.97;49.63;102764.19;4983627;28;20034;-67
2024/01/25 08:06:56;;;;;;;26.88;5.78;;;;;;;14.00;48.20;102764.84;4998351;28;20367;-67
2024/01/25 08:09:21;;;;;;;22.70;5.00;;;;;;;14.02;49.43;102759.34;4997149;28;20125;-67
2024/01/25 08:11:47;;;;;;;28.77;4.53;;;;;;;14.08;48.91;102758.94;4996729;28;20058;-67
2024/01/25 08:14:12;;;;;;;29.15;5.32;;;;;;;14.07;49.09;102753.66;4996774;28;20069;-67
2024/01/25 08:16:38;;;;;;;24.55;4.97;;;;;;;14.10;48.54;102756.16;4994369;28;20061;-67
2024/01/25 08:19:04;;;;;;;23.33;4.75;;;;;;;14.09;49.11;102749.88;4994360;28;20088;-66
2024/01/25 08:21:30;;;;;;;24.65;5.93;;;;;;;14.13;48.48;102755.91;4994534;28;20030;-69
2024/01/25 08:23:55;;;;;;;19.08;4.40;;;;;;;14.19;48.08;102759.06;4995585;28;20080;-66
2024/01/25 08:26:20;;;;;;;26.48;4.80;;;;;;;14.23;48.66;102760.59;4977971;28;20038;-69
2024/01/25 08:28:46;;;;;;;28.48;4.82;;;;;;;14.30;48.64;102759.19;4978143;28;20053;-66
2024/01/25 08:31:12;;;;;;;20.77;5.22;;;;;;;14.36;49.31;102758.78;4994185;28;20046;-69
2024/01/25 08:33:41;;;;;;;19.98;4.75;;;;;;;14.40;48.22;102765.72;4994313;28;20041;-66
2024/01/25 08:36:07;;;;;;;35.10;5.50;;;;;;;14.42;49.32;102769.16;4995462;28;20039;-66
2024/01/25 08:38:32;;;;;;;20.98;4.97;;;;;;;14.49;49.47;102775.84;4977861;28;20042;-69
2024/01/25 08:40:58;;;;;;;33.65;5.20;;;;;;;14.54;49.49;102779.06;4995315;28;20029;-66
2024/01/25 08:43:23;;;;;;;32.60;4.90;;;;;;;14.62;49.15;102750.72;4995350;28;20121;-68
2024/01/25 08:45:48;;;;;;;31.33;6.25;;;;;;;14.68;48.46;102729.59;4995151;28;20121;-67
2024/01/25 08:48:14;;;;;;;37.13;5.90;;;;;;;14.73;47.78;102721.16;4995186;28;20065;-68
2024/01/25 08:50:39;;;;;;;31.67;4.97;;;;;;;14.75;48.52;102730.84;4993600;28;20105;-69
2024/01/25 08:53:05;;;;;;;33.42;5.72;;;;;;;14.83;49.25;102746.47;4995225;28;20034;-68
2024/01/25 08:55:30;;;;;;;26.80;5.55;;;;;;;14.87;49.56;102740.78;4993939;28;20045;-68
2024/01/25 08:57:56;;;;;;;21.70;5.25;;;;;;;14.95;48.95;102751.00;4995141;28;20026;-69
2024/01/25 09:00:21;;;;;;;25.08;4.70;;;;;;;15.01;47.96;102750.59;4993639;28;20042;-68
2024/01/25 09:02:47;;;;;;;27.77;5.63;;;;;;;15.06;49.15;102748.41;4994768;28;20030;-68
2024/01/25 09:05:13;;;;;;;31.75;5.78;;;;;;;15.16;48.72;102746.75;4993314;28;20038;-69
2024/01/25 09:07:38;;;;;;;16.45;4.97;;;;;;;15.24;48.77;102741.69;4977053;28;20121;-68
2024/01/25 09:10:04;;;;;;;27.05;6.40;;;;;;;15.31;48.99;102753.75;4993003;28;20054;-67
2024/01/25 09:12:30;;;;;;;28.73;5.68;;;;;;;15.36;49.26;102751.56;4992914;28;20421;-66
2024/01/25 09:14:55;;;;;;;24.85;4.78;;;;;;;15.44;49.39;102754.56;4977035;28;20027;-67
2024/01/25 09:17:23;;;;;;;23.92;6.03;;;;;;;15.52;48.34;102752.19;4994574;28;20038;-67
2024/01/25 09:19:49;;;;;;;32.88;5.93;;;;;;;15.58;48.24;102746.31;4993186;28;20027;-67
2024/01/25 09:22:16;;;;;;;30.73;5.00;;;;;;;15.62;48.37;102760.47;4993310;28;20081;-67
2024/01/25 09:24:42;;;;;;;32.00;6.50;;;;;;;15.62;48.51;102769.44;4977296;28;20469;-67
2024/01/25 09:27:07;;;;;;;37.58;6.63;;;;;;;15.62;48.67;102764.03;4976909;28;20038;-67
2024/01/25 09:29:32;;;;;;;26.77;6.45;;;;;;;15.63;49.00;102764.91;4993205;28;20498;-66
2024/01/25 09:31:58;;;;;;;24.90;6.25;;;;;;;15.65;48.73;102762.94;4992993;28;20521;-67
2024/01/25 09:34:23;;;;;;;25.88;7.78;;;;;;;15.65;48.17;102752.13;4994172;28;20532;-67
2024/01/25 09:36:49;;;;;;;29.15;6.40;;;;;;;15.64;48.45;102753.97;4993138;28;20069;-67
2024/01/25 09:39:15;;;;;;;45.60;7.43;;;;;;;15.66;48.52;102760.13;4994143;28;20038;-67
2024/01/25 09:41:41;;;;;;;30.88;6.63;;;;;;;15.60;49.22;102766.00;4993135;28;20034;-67
2024/01/25 09:44:08;;;;;;;26.65;6.32;;;;;;;15.58;48.21;102776.03;4992987;28;20516;-67
2024/01/25 09:46:33;;;;;;;32.10;6.20;;;;;;;15.54;49.49;102766.44;4993965;28;20034;-67
2024/01/25 09:48:59;;;;;;;22.98;6.80;;;;;;;15.47;49.04;102775.97;4976348;28;20413;-67
2024/01/25 09:51:25;;;;;;;23.70;7.55;;;;;;;15.44;49.25;102767.19;4992832;28;20035;-67
2024/01/25 09:53:53;;;;;;;32.75;6.32;;;;;;;15.43;49.25;102769.06;4992723;28;20490;-67
2024/01/25 09:56:20;;;;;;;32.47;7.57;;;;;;;15.40;48.05;102763.00;4992762;28;20521;-67
2024/01/25 09:58:46;;;;;;;25.55;7.35;;;;;;;15.34;49.28;102758.91;4994026;28;20042;-67
2024/01/25 10:01:13;;;;;;;28.35;9.15;;;;;;;15.35;49.53;102766.06;4992629;28;20490;-67
2024/01/25 10:03:48;;;;;;;27.80;7.40;;;;;;;15.35;48.25;102762.50;4976369;28;20062;-67
2024/01/25 10:06:15;;;;;;;41.90;10.07;;;;;;;15.35;49.38;102771.47;4992649;28;20042;-67
2024/01/25 10:08:40;;;;;;;49.63;10.80;;;;;;;15.32;48.69;102768.09;4992543;28;20034;-67
2024/01/25 10:11:07;;;;;;;43.72;9.80;;;;;;;15.32;48.48;102760.00;4993304;28;20390;-66
2024/01/25 10:13:43;;;;;;;37.45;11.35;;;;;;;15.28;48.72;102764.75;4992576;28;20050;-67
2024/01/25 10:16:12;;;;;;;42.47;10.73;;;;;;;15.31;49.07;102775.34;4992430;28;20560;-67
2024/01/25 10:18:38;;;;;;;35.42;12.05;;;;;;;15.28;49.66;102763.91;4993726;28;20030;-67
2024/01/25 10:21:03;;;;;;;31.77;9.65;;;;;;;15.29;48.42;102769.19;4976162;28;20114;-67
2024/01/25 10:23:29;;;;;;;39.17;11.70;;;;;;;15.30;49.58;102754.72;4992284;28;20027;-67
2024/01/25 10:25:56;;;;;;;46.47;10.75;;;;;;;15.38;49.48;102755.00;4992960;28;20409;-67
2024/01/25 10:28:23;;;;;;;37.72;10.82;;;;;;;15.43;48.71;102755.56;4974588;28;20035;-67
2024/01/25 10:30:49;;;;;;;40.25;11.27;;;;;;;15.48;48.41;102766.03;4975658;28;20041;-67
2024/01/25 10:33:15;;;;;;;56.72;11.25;;;;;;;15.52;49.65;102749.47;4992211;28;20034;-67
2024/01/25 10:35:45;;;;;;;44.08;11.15;;;;;;;15.53;49.71;102751.22;4975976;28;20038;-67
2024/01/25 10:38:10;;;;;;;58.08;13.52;;;;;;;15.60;48.69;102739.00;4992411;28;20034;-67
2024/01/25 10:40:36;;;;;;;38.92;11.10;;;;;;;15.66;48.78;102746.59;4976399;28;20110;-67
2024/01/25 10:43:01;;;;;;;52.90;11.20;;;;;;;15.68;48.58;102750.09;4992396;28;20572;-67
2024/01/25 10:45:27;;;;;;;40.15;11.48;;;;;;;15.69;48.73;102742.81;4992026;28;20030;-67
2024/01/25 10:47:52;;;;;;;34.60;12.25;;;;;;;15.69;49.67;102742.81;4975936;28;20498;-66
2024/01/25 10:50:17;;;;;;;47.53;13.13;;;;;;;15.73;48.95;102742.47;4992096;28;20031;-67
2024/01/25 10:52:43;;;;;;;41.28;9.63;;;;;;;15.79;48.68;102738.44;4975840;28;20057;-67
2024/01/25 10:55:09;;;;;;;35.72;10.63;;;;;;;15.91;49.25;102725.84;4975718;28;20043;-67
2024/01/25 10:57:37;;;;;;;35.45;9.35;;;;;;;15.96;48.37;102723.66;4991912;28;20042;-67
2024/01/25 11:00:05;;;;;;;30.13;9.52;;;;;;;15.96;49.32;102716.41;4992004;28;20031;-67
2024/01/25 11:02:34;;;;;;;31.05;9.73;;;;;;;16.01;48.62;102705.22;4992136;28;20133;-67
2024/01/25 11:05:01;;;;;;;27.52;10.82;;;;;;;16.14;48.09;102706.00;4993167;28;20109;-67
2024/01/25 11:07:26;;;;;;;30.15;9.05;;;;;;;16.28;49.14;102705.78;4992348;28;20445;-67
2024/01/25 11:09:52;;;;;;;24.70;8.98;;;;;;;16.37;48.77;102702.38;4992827;28;20057;-67